createdAt,value
2018-11-20T00:02:12.316Z,6.60
2018-11-20T00:04:49.512Z,6.20
2018-11-20T00:07:21.636Z,6.60
2018-11-20T00:09:55.090Z,7.17
2018-11-20T00:12:28.056Z,8.20
2018-11-20T00:15:04.463Z,7.17
2018-11-20T00:17:37.886Z,5.53
2018-11-20T00:20:14.364Z,8.63
2018-11-20T00:22:46.515Z,7.63
2018-11-20T00:25:21.447Z,9.00
2018-11-20T00:27:58.516Z,9.70
2018-11-20T00:30:30.695Z,7.43
2018-11-20T00:33:08.955Z,9.57
2018-11-20T00:35:42.347Z,10.20
2018-11-20T00:40:24.160Z,9.00
2018-11-20T00:42:59.249Z,7.83
2018-11-20T00:45:52.768Z,9.13
2018-11-20T00:50:30.588Z,7.00
2018-11-20T00:53:03.860Z,9.03
2018-11-20T00:55:48.857Z,7.90
2018-11-20T00:58:21.096Z,9.33
2018-11-20T01:01:02.267Z,7.67
2018-11-20T01:03:37.350Z,8.73
2018-11-20T01:06:10.600Z,9.23
2018-11-20T01:08:44.508Z,9.93
2018-11-20T01:11:17.783Z,8.23
2018-11-20T01:13:51.211Z,9.70
2018-11-20T01:18:30.492Z,11.23
2018-11-20T01:21:03.931Z,11.00
2018-11-20T01:23:37.071Z,10.50
2018-11-20T01:26:10.443Z,10.13
2018-11-20T01:30:47.423Z,10.10
2018-11-20T01:34:23.582Z,11.57
2018-11-20T01:36:57.532Z,11.87
2018-11-20T01:39:33.640Z,11.13
2018-11-20T01:42:06.799Z,10.70
2018-11-20T01:45:12.454Z,10.53
2018-11-20T01:47:45.867Z,12.90
2018-11-20T01:50:24.106Z,12.13
2018-11-20T01:52:57.399Z,13.07
2018-11-20T01:55:29.577Z,14.57
2018-11-20T01:58:07.665Z,14.53
2018-11-20T02:00:57.019Z,14.57
2018-11-20T02:03:29.163Z,13.27
2018-11-20T02:06:04.902Z,14.90
2018-11-20T02:08:38.129Z,15.10
2018-11-20T02:11:17.344Z,15.17
2018-11-20T02:14:01.559Z,14.00
2018-11-20T02:16:47.453Z,15.40
2018-11-20T02:19:21.509Z,14.77
2018-11-20T02:22:25.747Z,14.20
2018-11-20T02:25:30.381Z,15.53
2018-11-20T02:28:05.359Z,17.37
2018-11-20T02:30:41.439Z,15.13
2018-11-20T02:33:17.544Z,17.33
2018-11-20T02:35:50.891Z,15.90
2018-11-20T02:39:25.127Z,16.37
2018-11-20T02:42:09.383Z,15.63
2018-11-20T02:45:40.659Z,13.27
2018-11-20T02:48:45.116Z,13.97
2018-11-20T02:51:21.375Z,16.77
2018-11-20T02:54:01.515Z,17.33
2018-11-20T02:56:34.967Z,15.93
2018-11-20T02:59:10.003Z,20.07
2018-11-20T03:01:44.079Z,16.97
2018-11-20T03:04:17.963Z,17.57
2018-11-20T03:07:00.160Z,17.27
2018-11-20T03:09:53.545Z,18.10
2018-11-20T03:14:31.375Z,18.27
2018-11-20T03:17:04.487Z,20.03
2018-11-20T03:19:39.702Z,20.70
2018-11-20T03:22:14.791Z,18.60
2018-11-20T03:24:50.856Z,19.10
2018-11-20T03:27:28.107Z,20.23
2018-11-20T03:31:12.052Z,18.80
2018-11-20T03:34:48.092Z,19.40
2018-11-20T03:37:22.466Z,20.03
2018-11-20T03:39:55.599Z,19.10
2018-11-20T03:42:28.935Z,23.10
2018-11-20T03:45:02.608Z,20.30
2018-11-20T03:47:35.821Z,20.13
2018-11-20T03:50:09.223Z,19.73
2018-11-20T03:53:41.262Z,17.20
2018-11-20T03:56:14.267Z,26.03
2018-11-20T03:58:47.635Z,17.50
2018-11-20T04:01:20.843Z,18.83
2018-11-20T04:03:52.990Z,19.83
2018-11-20T04:06:25.175Z,19.23
2018-11-20T04:08:57.391Z,17.13
2018-11-20T04:11:44.865Z,18.57
2018-11-20T04:14:18.235Z,17.73
2018-11-20T04:16:54.463Z,21.33
2018-11-20T04:19:26.608Z,20.57
2018-11-20T04:22:00.019Z,18.83
2018-11-20T04:24:37.103Z,17.90
2018-11-20T04:27:10.524Z,21.30
2018-11-20T04:29:46.671Z,16.83
2018-11-20T04:32:45.184Z,15.93
2018-11-20T04:35:24.854Z,14.00
2018-11-20T04:38:03.067Z,16.50
2018-11-20T04:40:35.222Z,17.30
2018-11-20T04:43:28.527Z,17.77
2018-11-20T04:46:02.082Z,17.17
2018-11-20T04:48:37.128Z,14.97
2018-11-20T04:52:17.516Z,20.53
2018-11-20T04:54:52.648Z,20.20
2018-11-20T04:57:25.936Z,18.73
2018-11-20T04:59:58.054Z,17.67
2018-11-20T05:02:32.096Z,17.63
2018-11-20T05:06:06.319Z,14.77
2018-11-20T05:08:38.684Z,17.77
2018-11-20T05:11:25.949Z,15.57
2018-11-20T05:13:59.203Z,15.63
2018-11-20T05:16:35.195Z,16.63
2018-11-20T05:19:11.419Z,16.77
2018-11-20T05:21:48.530Z,17.43
2018-11-20T05:26:26.236Z,18.53
2018-11-20T05:29:18.680Z,14.40
2018-11-20T05:31:51.892Z,15.63
2018-11-20T05:34:25.092Z,14.87
2018-11-20T05:38:02.499Z,15.47
2018-11-20T05:41:07.972Z,17.60
2018-11-20T05:43:56.166Z,16.27
2018-11-20T05:47:33.976Z,17.17
2018-11-20T05:50:07.003Z,17.93
2018-11-20T05:52:40.137Z,16.93
2018-11-20T05:55:16.227Z,14.67
2018-11-20T05:57:50.438Z,17.07
2018-11-20T06:02:28.208Z,20.77
2018-11-20T06:05:00.362Z,17.03
2018-11-20T06:07:32.501Z,17.13
2018-11-20T06:10:05.827Z,16.67
2018-11-20T06:12:41.066Z,18.70
2018-11-20T06:15:16.089Z,21.77
2018-11-20T06:17:49.378Z,18.63
2018-11-20T06:20:23.599Z,17.23
2018-11-20T06:22:56.699Z,20.60
2018-11-20T06:25:31.940Z,20.07
2018-11-20T06:28:07.987Z,18.30
2018-11-20T06:30:44.060Z,19.67
2018-11-20T06:33:19.256Z,18.90
2018-11-20T06:35:53.468Z,19.37
2018-11-20T06:38:28.099Z,17.20
2018-11-20T06:41:01.617Z,19.23
2018-11-20T06:43:52.653Z,21.33
2018-11-20T06:46:24.799Z,17.47
2018-11-20T06:48:57.990Z,18.47
2018-11-20T06:51:35.187Z,18.80
2018-11-20T06:54:16.312Z,17.70
2018-11-20T06:57:20.774Z,19.53
2018-11-20T06:59:56.989Z,17.97
2018-11-20T07:02:30.259Z,20.03
2018-11-20T07:05:10.475Z,17.73
2018-11-20T07:07:47.735Z,18.23
2018-11-20T07:10:26.631Z,20.00
2018-11-20T07:13:03.343Z,17.43
2018-11-20T07:15:38.081Z,18.37
2018-11-20T07:19:15.423Z,18.57
2018-11-20T07:21:52.608Z,24.03
2018-11-20T07:24:25.847Z,15.27
2018-11-20T07:26:59.157Z,21.37
2018-11-20T07:29:37.547Z,19.63
2018-11-20T07:32:10.868Z,20.80
2018-11-20T07:36:48.703Z,17.07
2018-11-20T07:39:21.516Z,23.80
2018-11-20T07:41:56.527Z,19.57
2018-11-20T07:46:38.471Z,20.60
2018-11-20T07:49:14.579Z,19.47
2018-11-20T07:53:50.033Z,19.80
2018-11-20T07:56:29.504Z,18.90
2018-11-20T07:59:02.739Z,20.80
2018-11-20T08:01:35.936Z,19.47
2018-11-20T08:04:18.088Z,18.27
2018-11-20T08:07:52.908Z,18.43
2018-11-20T08:12:28.995Z,17.33
2018-11-20T08:15:09.247Z,21.03
2018-11-20T08:17:47.380Z,21.27
2018-11-20T08:20:55.511Z,20.50
2018-11-20T08:23:38.605Z,18.67
2018-11-20T08:26:31.731Z,17.77
2018-11-20T08:29:13.250Z,22.07
2018-11-20T08:31:52.330Z,19.67
2018-11-20T08:34:38.205Z,21.17
2018-11-20T08:37:23.849Z,21.90
2018-11-20T08:40:09.897Z,21.00
2018-11-20T08:43:04.355Z,19.77
2018-11-20T08:45:52.669Z,19.87
2018-11-20T08:48:52.052Z,17.57
2018-11-20T08:51:38.161Z,20.30
2018-11-20T08:54:19.888Z,17.30
2018-11-20T08:57:14.811Z,18.83
2018-11-20T08:59:52.464Z,23.17
2018-11-20T09:02:48.443Z,20.67
2018-11-20T09:05:44.238Z,18.40
2018-11-20T09:08:40.472Z,21.10
2018-11-20T09:11:25.734Z,21.80
2018-11-20T09:14:28.065Z,20.13
2018-11-20T09:17:18.178Z,21.00
2018-11-20T09:20:14.445Z,23.03
2018-11-20T09:23:07.401Z,20.13
2018-11-20T09:25:53.282Z,20.90
2018-11-20T09:28:36.288Z,19.83
2018-11-20T09:31:21.874Z,21.53
2018-11-20T09:34:14.833Z,21.07
2018-11-20T09:37:10.749Z,18.97
2018-11-20T09:39:59.678Z,22.17
2018-11-20T09:42:37.278Z,20.43
2018-11-20T09:46:04.052Z,23.13
2018-11-20T09:48:51.435Z,19.30
2018-11-20T09:51:37.275Z,17.77
2018-11-20T09:54:37.255Z,21.70
2018-11-20T09:57:22.818Z,20.83
2018-11-20T10:00:19.185Z,21.10
2018-11-20T10:03:18.143Z,19.23
2018-11-20T10:05:55.758Z,22.07
2018-11-20T10:08:42.530Z,23.80
2018-11-20T10:11:28.026Z,20.17
2018-11-20T10:14:10.994Z,22.23
2018-11-20T10:16:58.340Z,20.27
2018-11-20T10:20:00.614Z,20.83
2018-11-20T10:22:47.263Z,19.87
2018-11-20T10:25:37.287Z,19.63
2018-11-20T10:28:23.050Z,22.10
2018-11-20T10:31:10.544Z,19.50
2018-11-20T10:33:56.442Z,22.30
2018-11-20T10:36:55.875Z,20.57
2018-11-20T10:39:47.508Z,22.03
2018-11-20T10:42:42.090Z,22.83
2018-11-20T10:45:28.272Z,20.67
2018-11-20T10:48:21.303Z,21.03
2018-11-20T10:51:07.597Z,21.60
2018-11-20T10:53:55.570Z,21.00
2018-11-20T10:56:41.359Z,22.43
2018-11-20T10:59:27.817Z,20.60
2018-11-20T11:02:26.740Z,22.60
2018-11-20T11:05:12.809Z,20.93
2018-11-20T11:07:59.690Z,21.87
2018-11-20T11:10:52.507Z,22.63
2018-11-20T11:13:51.890Z,21.70
2018-11-20T11:16:41.780Z,21.27
2018-11-20T11:19:27.414Z,22.33
2018-11-20T11:22:13.024Z,20.57
2018-11-20T11:24:59.046Z,19.67
2018-11-20T11:27:42.467Z,19.87
2018-11-20T11:30:24.471Z,22.70
2018-11-20T11:33:10.360Z,18.13
2018-11-20T11:36:06.373Z,20.40
2018-11-20T11:38:56.070Z,20.53
2018-11-20T11:41:40.430Z,20.60
2018-11-20T11:44:26.285Z,21.10
2018-11-20T11:47:16.517Z,19.47
2018-11-20T11:50:02.855Z,22.77
2018-11-20T11:52:59.037Z,19.97
2018-11-20T11:55:52.291Z,20.57
2018-11-20T11:58:30.382Z,22.20
2018-11-20T12:01:17.546Z,18.27
2018-11-20T12:06:53.717Z,21.67
2018-11-20T12:09:40.829Z,22.80
2018-11-20T12:12:20.866Z,20.57
2018-11-20T12:15:07.269Z,23.50
2018-11-20T12:17:45.266Z,20.20
2018-11-20T12:20:50.573Z,20.47
2018-11-20T12:23:36.752Z,20.07
2018-11-20T12:26:14.960Z,22.03
2018-11-20T12:29:14.834Z,22.80
2018-11-20T12:32:10.250Z,23.40
2018-11-20T12:34:56.735Z,22.43
2018-11-20T12:37:46.259Z,20.13
2018-11-20T12:40:32.874Z,22.10
2018-11-20T12:43:24.624Z,18.90
2018-11-20T12:46:13.138Z,22.20
2018-11-20T12:49:03.433Z,19.73
2018-11-20T12:51:49.267Z,22.20
2018-11-20T12:54:54.490Z,21.77
2018-11-20T12:57:42.292Z,18.10
2018-11-20T13:00:28.064Z,21.30
2018-11-20T13:03:13.600Z,20.20
2018-11-20T13:05:59.456Z,23.47
2018-11-20T13:08:46.099Z,21.50
2018-11-20T13:11:45.025Z,28.27
2018-11-20T13:14:33.028Z,21.77
2018-11-20T13:17:26.079Z,19.47
2018-11-20T13:20:08.246Z,22.80
2018-11-20T13:22:54.002Z,25.13
2018-11-20T13:25:53.306Z,22.00
2018-11-20T13:28:46.543Z,26.53
2018-11-20T13:31:33.130Z,24.27
2018-11-20T13:34:20.906Z,22.27
2018-11-20T13:37:04.652Z,22.73
2018-11-20T13:39:52.146Z,24.80
2018-11-20T13:42:57.303Z,24.40
2018-11-20T13:45:51.980Z,21.70
2018-11-20T13:48:47.783Z,24.67
2018-11-20T13:51:34.880Z,24.33
2018-11-20T13:54:40.199Z,22.03
2018-11-20T13:57:45.840Z,25.23
2018-11-20T14:00:42.244Z,25.43
2018-11-20T14:03:25.781Z,22.73
2018-11-20T14:06:31.673Z,24.10
2018-11-20T14:09:17.676Z,21.70
2018-11-20T14:12:08.529Z,24.80
2018-11-20T14:14:53.911Z,22.50
2018-11-20T14:17:50.387Z,21.47
2018-11-20T14:20:56.241Z,24.87
2018-11-20T14:23:41.884Z,20.63
2018-11-20T14:26:27.894Z,23.30
2018-11-20T14:29:13.669Z,25.07
2018-11-20T14:32:03.506Z,24.13
2018-11-20T14:34:50.043Z,24.43
2018-11-20T14:37:36.163Z,25.10
2018-11-20T14:40:32.491Z,21.20
2018-11-20T14:43:11.584Z,23.83
2018-11-20T14:46:01.489Z,23.30
2018-11-20T14:48:47.020Z,22.90
2018-11-20T14:51:36.262Z,22.37
2018-11-20T14:54:22.218Z,23.53
2018-11-20T14:57:08.080Z,21.10
2018-11-20T14:59:54.469Z,25.30
2018-11-20T15:02:40.177Z,22.23
2018-11-20T15:05:26.027Z,21.17
2018-11-20T15:08:12.153Z,20.77
2018-11-20T15:10:51.820Z,18.13
2018-11-20T15:13:57.520Z,15.07
2018-11-20T15:16:54.304Z,17.13
2018-11-20T15:19:59.365Z,14.07
2018-11-20T15:22:44.963Z,15.80
2018-11-20T15:25:30.530Z,15.10
2018-11-20T15:28:05.118Z,12.63
2018-11-20T15:30:52.630Z,14.40
2018-11-20T15:33:45.536Z,14.20
2018-11-20T15:36:21.035Z,15.43
2018-11-20T15:39:04.697Z,14.53
2018-11-20T15:41:54.456Z,14.30
2018-11-20T15:44:41.558Z,12.20
2018-11-20T15:47:35.117Z,10.43
2018-11-20T15:50:40.681Z,11.50
2018-11-20T15:53:27.305Z,11.87
2018-11-20T15:56:17.670Z,13.93
2018-11-20T15:59:04.192Z,11.50
2018-11-20T16:01:50.191Z,11.43
2018-11-20T16:04:50.514Z,9.40
2018-11-20T16:07:46.435Z,12.67
2018-11-20T16:10:21.265Z,10.80
2018-11-20T16:13:01.962Z,11.13
2018-11-20T16:15:57.938Z,9.63
2018-11-20T16:18:57.393Z,9.97
2018-11-20T16:21:56.775Z,9.73
2018-11-20T16:24:39.909Z,9.67
2018-11-20T16:27:27.632Z,9.27
2018-11-20T16:30:13.493Z,8.53
2018-11-20T16:33:00.569Z,9.13
2018-11-20T16:35:46.104Z,9.70
2018-11-20T16:38:32.925Z,10.77
2018-11-20T16:41:18.995Z,9.90
2018-11-20T16:44:18.146Z,9.83
2018-11-20T16:47:08.102Z,10.37
2018-11-20T16:49:53.959Z,11.53
2018-11-20T16:52:45.002Z,9.97
2018-11-20T16:55:32.131Z,9.67
2018-11-20T16:58:18.290Z,8.90
2018-11-20T17:01:04.808Z,10.00
2018-11-20T17:03:54.478Z,9.60
2018-11-20T17:06:33.011Z,9.73
2018-11-20T17:09:31.962Z,10.93
2018-11-20T17:12:19.057Z,9.47
2018-11-20T17:15:25.106Z,9.77
2018-11-20T17:18:05.656Z,11.23
2018-11-20T17:21:07.818Z,10.63
2018-11-20T17:23:57.667Z,10.47
2018-11-20T17:26:53.804Z,10.23
2018-11-20T17:29:50.732Z,10.40
2018-11-20T17:32:30.498Z,12.30
2018-11-20T17:35:16.697Z,11.10
2018-11-20T17:37:55.736Z,12.60
2018-11-20T17:41:01.328Z,11.47
2018-11-20T17:43:47.271Z,11.07
2018-11-20T17:46:39.688Z,11.97
2018-11-20T17:49:25.571Z,13.03
2018-11-20T17:52:18.349Z,12.70
2018-11-20T17:55:08.520Z,12.80
2018-11-20T17:58:10.507Z,11.37
2018-11-20T18:01:02.533Z,11.77
2018-11-20T18:03:48.293Z,11.97
2018-11-20T18:06:41.562Z,13.03
2018-11-20T18:09:19.361Z,11.20
2018-11-20T18:12:05.226Z,14.97
2018-11-20T18:14:50.936Z,16.93
2018-11-20T18:17:27.896Z,14.37
2018-11-20T18:20:13.463Z,12.23
2018-11-20T18:22:53.133Z,12.50
2018-11-20T18:25:39.384Z,13.97
2018-11-20T18:28:25.484Z,12.07
2018-11-20T18:31:27.450Z,12.87
2018-11-20T18:34:13.559Z,13.03
2018-11-20T18:37:07.685Z,13.20
2018-11-20T18:39:59.927Z,13.43
2018-11-20T18:43:05.068Z,12.60
2018-11-20T18:45:51.555Z,13.80
2018-11-20T18:48:39.672Z,14.57
2018-11-20T18:51:19.650Z,15.47
2018-11-20T18:54:05.423Z,17.23
2018-11-20T18:57:04.886Z,18.20
2018-11-20T18:59:58.214Z,15.80
2018-11-20T19:02:57.741Z,12.60
2018-11-20T19:05:43.606Z,14.77
2018-11-20T19:08:46.539Z,13.87
2018-11-20T19:11:32.091Z,16.17
2018-11-20T19:14:17.909Z,14.27
2018-11-20T19:16:58.999Z,15.23
2018-11-20T19:19:45.283Z,13.80
2018-11-20T19:22:32.378Z,14.30
2018-11-20T19:25:18.240Z,14.83
2018-11-20T19:28:17.295Z,13.67
2018-11-20T19:31:03.797Z,13.87
2018-11-20T19:33:53.486Z,13.90
2018-11-20T19:36:43.823Z,14.37
2018-11-20T19:39:33.033Z,16.53
2018-11-20T19:42:18.602Z,13.70
2018-11-20T19:45:08.219Z,14.87
2018-11-20T19:48:01.633Z,19.77
2018-11-20T19:50:49.099Z,17.83
2018-11-20T19:53:52.225Z,15.73
2018-11-20T19:56:39.683Z,12.77
2018-11-20T19:59:25.494Z,14.80
2018-11-20T20:02:33.333Z,14.03
2018-11-20T20:05:20.821Z,15.17
2018-11-20T20:08:11.751Z,18.87
2018-11-20T20:10:59.472Z,16.70
2018-11-20T20:13:49.854Z,17.63
2018-11-20T20:16:36.293Z,18.77
2018-11-20T20:19:26.572Z,17.43
2018-11-20T20:22:11.352Z,19.27
2018-11-20T20:25:07.333Z,19.63
2018-11-20T20:28:03.556Z,17.93
2018-11-20T20:30:49.652Z,15.77
2018-11-20T20:33:35.866Z,16.83
2018-11-20T20:36:21.673Z,17.80
2018-11-20T20:39:24.172Z,18.00
2018-11-20T20:42:20.048Z,18.03
2018-11-20T20:45:06.507Z,17.63
2018-11-20T20:47:56.755Z,15.57
2018-11-20T20:50:42.797Z,17.37
2018-11-20T20:53:27.168Z,17.90
2018-11-20T20:56:29.994Z,15.07
2018-11-20T20:59:17.888Z,16.23
2018-11-20T21:02:05.577Z,16.90
2018-11-20T21:04:45.338Z,18.33
2018-11-20T21:07:43.886Z,16.70
2018-11-20T21:10:42.473Z,17.23
2018-11-20T21:13:28.656Z,15.93
2018-11-20T21:16:14.800Z,17.30
2018-11-20T21:18:59.721Z,17.20
2018-11-20T21:21:45.813Z,17.67
2018-11-20T21:24:36.025Z,15.40
2018-11-20T21:27:23.150Z,15.80
2018-11-20T21:30:10.118Z,14.10
2018-11-20T21:33:06.614Z,18.33
2018-11-20T21:36:02.572Z,15.33
2018-11-20T21:38:52.438Z,15.13
2018-11-20T21:41:44.436Z,17.20
2018-11-20T21:44:31.556Z,15.77
2018-11-20T21:47:17.545Z,16.80
2018-11-20T21:50:07.269Z,15.67
2018-11-20T21:53:12.557Z,14.77
2018-11-20T21:55:52.653Z,17.03
2018-11-20T21:58:52.005Z,15.83
2018-11-20T22:01:38.004Z,17.23
2018-11-20T22:04:24.108Z,15.23
2018-11-20T22:07:09.829Z,14.40
2018-11-20T22:09:55.418Z,15.87
2018-11-20T22:12:51.750Z,15.93
2018-11-20T22:15:30.150Z,14.63
2018-11-20T22:18:16.292Z,16.07
2018-11-20T22:21:02.357Z,14.63
2018-11-20T22:23:48.136Z,15.77
2018-11-20T22:26:35.581Z,14.80
2018-11-20T22:29:21.770Z,16.03
2018-11-20T22:32:09.236Z,16.80
2018-11-20T22:34:53.115Z,14.47
2018-11-20T22:37:36.244Z,12.83
2018-11-20T22:40:27.586Z,15.60
2018-11-20T22:43:13.252Z,14.77
2018-11-20T22:45:59.167Z,14.70
2018-11-20T22:48:44.654Z,15.57
2018-11-20T22:51:31.072Z,15.63
2018-11-20T22:54:19.260Z,16.30
2018-11-20T22:57:12.994Z,15.97
2018-11-20T22:59:47.177Z,13.70
2018-11-20T23:02:35.202Z,14.83
2018-11-20T23:05:21.473Z,13.73
2018-11-20T23:07:54.054Z,14.10
2018-11-20T23:10:23.043Z,13.23
2018-11-20T23:12:51.950Z,16.50
2018-11-20T23:15:20.245Z,13.90
2018-11-20T23:17:48.199Z,15.40
2018-11-20T23:20:16.410Z,15.13
2018-11-20T23:22:44.425Z,13.57
2018-11-20T23:25:13.509Z,16.57
2018-11-20T23:27:41.594Z,15.03
2018-11-20T23:30:11.182Z,18.20
2018-11-20T23:32:39.763Z,15.30
2018-11-20T23:35:09.099Z,17.30
2018-11-20T23:37:37.587Z,15.13
2018-11-20T23:40:06.192Z,15.70
2018-11-20T23:42:34.663Z,16.97
2018-11-20T23:45:02.869Z,15.53
2018-11-20T23:47:30.872Z,19.83
2018-11-20T23:49:59.148Z,17.43
2018-11-20T23:52:27.449Z,16.77
2018-11-20T23:54:55.712Z,16.10
2018-11-20T23:57:23.628Z,22.83
2018-11-20T23:59:51.575Z,19.20
